Latest Coastal Weather Observations for Milingimbi

IDD60701

Issued at 2:25 am CST Thursday 28 August 2014 (issued every 10 minutes, with the page automatically refreshed every 10 minutes)

About coastal observations | Map of coastal stations | Coastal observations for NT | Marine services | Other Formats
Station Details ID: 014404 Name: MILINGIMBI AIRPORT Lat: -12.09 Lon: 134.89 Height: 15.0 m
Data from the previous 72 hours. | See also: Recent months at Milingimbi
Date/Time
CST
Temp

°C
Wind Pressure Rain
since 9am
mm
Weather Cloud Vis
km
Sea
Height
m
Swell
Dir
 
Speed
knots
Gust
knots
hPa Trend Height
m
Period
s
Dir
28/02:00am 19.4 SSE 8 11 1014.1 - 0.0 - - - - - - -
28/01:30am 19.8 SSE 7 9 1014.6 - 0.0 - - - - - - -
28/01:00am 20.1 SSE 6 9 1014.7 - 0.0 - - - - - - -
28/12:30am 20.9 SSE 7 10 1015.1 - 0.0 - - - - - - -
28/12:00am 21.2 SSE 7 9 1015.1 - 0.0 - - - - - - -
 
Date/Time
CST
Temp

°C
Wind Pressure Rain
since 9am
mm
Weather Cloud Vis
km
Sea
Height
m
Swell
Dir
 
Speed
knots
Gust
knots
hPa Trend Height
m
Period
s
Dir
27/11:30pm 21.9 SE 8 12 1015.3 - 0.0 - - - - - - -
27/11:00pm 22.3 SE 8 14 1015.3 - 0.0 - - - - - - -
27/10:30pm 22.8 SE 11 15 1015.4 - 0.0 - - - - - - -
27/10:00pm 23.0 SE 9 12 1015.3 - 0.0 - - - - - - -
27/09:30pm 23.7 SE 9 13 1015.1 - 0.0 - - - - - - -
27/09:00pm 24.4 SE 10 13 1014.5 - 0.0 - - - - - - -
27/08:30pm 25.0 SE 10 14 1014.2 - 0.0 - - - - - - -
27/08:00pm 25.5 SSE 9 13 1013.8 - 0.0 - - - - - - -
27/07:30pm 25.9 SSE 9 14 1013.3 - 0.0 - - - - - - -
27/07:00pm 26.7 SSE 9 12 1012.8 - 0.0 - - - - - - -
27/06:30pm 27.5 SSE 7 11 1012.3 - 0.0 - - - - - - -
27/06:00pm 28.7 SE 10 15 1011.6 - 0.0 - - - - - - -
27/05:30pm 29.7 ESE 11 16 1011.4 - 0.0 - - - - - - -
27/05:00pm 30.3 ESE 10 14 1011.2 - 0.0 - - - - - - -
27/04:30pm 30.9 E 9 18 1011.1 - 0.0 - - - - - - -
27/04:00pm 31.3 ESE 13 19 1011.0 - 0.0 - - - - - - -
27/03:30pm 30.1 ENE 8 14 1011.0 - 0.0 - - - - - - -
27/03:00pm 30.1 NE 8 13 1011.0 - 0.0 - - - - - - -
27/02:30pm 30.8 NE 8 14 1011.3 - 0.0 - - - - - - -
27/02:00pm 30.7 E 11 15 1011.7 - 0.0 - - - - - - -
27/01:30pm 31.2 E 10 14 1012.1 - 0.0 - - - - - - -
27/01:00pm 31.3 ESE 10 16 1012.5 - 0.0 - - - - - - -
27/12:30pm 31.3 ESE 12 17 1013.0 - 0.0 - - - - - - -
27/12:00pm 30.8 ESE 14 19 1013.2 - 0.0 - - - - - - -
27/11:30am 29.7 ESE 13 19 1013.6 - 0.0 - - - - - - -
27/11:00am 28.9 ESE 9 16 1014.0 - 0.0 - - - - - - -
27/10:30am 27.0 ESE 10 17 1014.3 - 0.0 - - - - - - -
27/10:00am 27.2 SE 12 17 1014.5 - 0.0 - - - - - - -
27/09:30am 25.0 SE 11 19 1014.5 - 0.0 - - - - - - -
27/09:00am 23.8 SE 10 14 1014.6 - 0.0 - - - - - - -
27/08:30am 22.1 SSE 8 12 1014.6 - 0.0 - - - - - - -
27/08:00am 21.2 SE 8 10 1014.4 - 0.0 - - - - - - -
27/07:30am 19.7 SSE 5 6 1014.2 - 0.0 - - - - - - -
27/07:00am 18.2 SE 1 3 1013.8 - 0.0 - - - - - - -
27/06:30am 18.6 SSE 6 8 1013.4 - 0.0 - - - - - - -
27/06:00am 18.5 SSE 4 6 1013.2 - 0.0 - - - - - - -
27/05:30am 18.4 SSE 4 5 1013.2 - 0.0 - - - - - - -
27/05:00am 18.4 SE 3 4 1013.1 - 0.0 - - - - - - -
27/04:30am 18.9 ESE 3 4 1013.2 - 0.0 - - - - - - -
27/04:00am 19.4 SE 3 5 1013.1 - 0.0 - - - - - - -
27/03:30am 20.1 SE 6 8 1013.3 - 0.0 - - - - - - -
27/03:00am 20.3 SE 6 8 1013.4 - 0.0 - - - - - - -
27/02:30am 20.5 SE 6 8 1013.9 - 0.0 - - - - - - -
27/02:00am 20.9 SE 7 9 1014.0 - 0.0 - - - - - - -
27/01:30am 21.2 SSE 7 10 1014.3 - 0.0 - - - - - - -
27/01:00am 21.7 SSE 7 9 1014.4 - 0.0 - - - - - - -
27/12:30am 22.0 SE 7 10 1014.5 - 0.0 - - - - - - -
27/12:00am 22.4 SE 7 10 1014.5 - 0.0 - - - - - - -
 
Date/Time
CST
Temp

°C
Wind Pressure Rain
since 9am
mm
Weather Cloud Vis
km
Sea
Height
m
Swell
Dir
 
Speed
knots
Gust
knots
hPa Trend Height
m
Period
s
Dir
26/11:30pm 23.0 SE 9 11 1014.6 - 0.0 - - - - - - -
26/11:00pm 23.4 SE 11 17 1014.4 - 0.0 - - - - - - -
26/10:30pm 23.8 SE 10 15 1014.4 - 0.0 - - - - - - -
26/10:00pm 24.4 SE 10 14 1014.1 - 0.0 - - - - - - -
26/09:30pm 24.9 SE 10 14 1013.8 - 0.0 - - - - - - -
26/09:00pm 25.3 SE 9 13 1013.4 - 0.0 - - - - - - -
26/08:30pm 25.9 SE 9 13 1013.0 - 0.0 - - - - - - -
26/08:00pm 25.9 SE 7 10 1012.8 - 0.0 - - - - - - -
26/07:30pm 25.6 SE 5 9 1012.4 - 0.0 - - - - - - -
26/07:00pm 24.7 CALM 0 0 1012.0 - 0.0 - - - - - - -
26/06:30pm 26.3 E 2 5 1011.5 - 0.0 - - - - - - -
26/06:00pm 27.7 ENE 4 6 1011.0 - 0.0 - - - - - - -
26/05:30pm 28.7 E 6 10 1010.8 - 0.0 - - - - - - -
26/05:00pm 29.4 ENE 7 12 1010.8 - 0.0 - - - - - - -
26/04:30pm 30.0 ENE 8 11 1010.6 - 0.0 - - - - - - -
26/04:00pm 30.5 ENE 7 12 1010.7 - 0.0 - - - - - - -
26/03:30pm 30.8 ENE 8 13 1010.8 - 0.0 - - - - - - -
26/03:00pm 31.7 E 7 11 1010.9 - 0.0 - - - - - - -
26/02:30pm 31.3 E 8 14 1011.2 - 0.0 - - - - - - -
26/02:00pm 31.2 E 9 14 1011.6 - 0.0 - - - - - - -
26/01:30pm 31.2 E 9 15 1012.1 - 0.0 - - - - - - -
26/01:00pm 31.4 ESE 10 16 1012.6 - 0.0 - - - - - - -
26/12:30pm 30.6 ESE 9 16 1013.2 - 0.0 - - - - - - -
26/12:00pm 30.2 ESE 11 16 1013.7 - 0.0 - - - - - - -
26/11:30am 29.4 ESE 9 17 1014.2 - 0.0 - - - - - - -
26/11:00am 29.4 ESE 13 19 1014.6 - 0.0 - - - - - - -
26/10:30am 28.7 SE 13 20 1014.7 - 0.0 - - - - - - -
26/10:00am 27.3 SE 12 21 1014.9 - 0.0 - - - - - - -
26/09:30am 27.0 SE 12 18 1014.9 - 0.0 - - - - - - -
26/09:00am 25.7 SSE 10 19 1014.9 - 0.0 - - - - - - -
26/08:30am 22.3 SSE 7 12 1014.9 - 0.0 - - - - - - -
26/08:00am 19.6 S 7 9 1014.7 - 0.0 - - - - - - -
26/07:30am 18.4 S 7 9 1014.5 - 0.0 - - - - - - -
26/07:00am 17.8 SSE 6 9 1014.1 - 0.0 - - - - - - -
26/06:30am 17.4 SSE 6 8 1013.6 - 0.0 - - - - - - -
26/06:00am 17.4 S 6 8 1013.3 - 0.0 - - - - - - -
26/05:30am 17.5 S 5 8 1013.2 - 0.0 - - - - - - -
26/05:00am 17.7 SSE 6 7 1013.2 - 0.0 - - - - - - -
26/04:30am 18.1 SSE 6 8 1013.2 - 0.0 - - - - - - -
26/04:00am 18.2 SSE 6 9 1013.2 - 0.0 - - - - - - -
26/03:30am 18.5 S 6 7 1013.4 - 0.0 - - - - - - -
26/03:00am 18.5 SSE 5 7 1013.4 - 0.0 - - - - - - -
26/02:30am 18.4 SE 4 6 1013.6 - 0.0 - - - - - - -
26/02:00am 19.1 SSE 5 6 1013.8 - 0.0 - - - - - - -
26/01:30am 19.8 SSE 6 7 1014.0 - 0.0 - - - - - - -
26/01:00am 20.5 SSE 7 10 1014.2 - 0.0 - - - - - - -
26/12:30am 20.9 SSE 6 9 1014.3 - 0.0 - - - - - - -
26/12:00am 21.7 SE 7 9 1014.4 - 0.0 - - - - - - -
 
Date/Time
CST
Temp

°C
Wind Pressure Rain
since 9am
mm
Weather Cloud Vis
km
Sea
Height
m
Swell
Dir
 
Speed
knots
Gust
knots
hPa Trend Height
m
Period
s
Dir
25/11:30pm 22.2 SSE 7 10 1014.6 - 0.0 - - - - - - -
25/11:00pm 22.5 SE 7 10 1014.8 - 0.0 - - - - - - -
25/10:30pm 22.1 SE 5 7 1014.7 - 0.0 - - - - - - -
25/10:00pm 23.0 SE 5 7 1014.8 - 0.0 - - - - - - -
25/09:30pm 24.0 SE 7 11 1014.8 - 0.0 - - - - - - -
25/09:00pm 24.5 SE 8 11 1014.5 - 0.0 - - - - - - -
25/08:30pm 25.3 SE 9 12 1014.4 - 0.0 - - - - - - -
25/08:00pm 26.0 SE 10 15 1014.2 - 0.0 - - - - - - -
25/07:30pm 26.4 SE 10 14 1013.9 - 0.0 - - - - - - -
25/07:00pm 27.0 SE 10 14 1013.4 - 0.0 - - - - - - -
25/06:30pm 26.8 ESE 7 9 1013.0 - 0.0 - - - - - - -
25/06:00pm 27.8 ESE 9 14 1012.6 - 0.0 - - - - - - -
25/05:30pm 28.7 ESE 10 15 1012.2 - 0.0 - - - - - - -
25/05:00pm 29.2 ESE 10 14 1012.0 - 0.0 - - - - - - -
25/04:30pm 30.1 ESE 11 17 1011.8 - 0.0 - - - - - - -
25/04:00pm 31.3 ESE 12 22 1011.8 - 0.0 - - - - - - -
25/03:30pm 31.1 ESE 12 19 1011.9 - 0.0 - - - - - - -
25/03:00pm 31.5 ESE 11 18 1011.9 - 0.0 - - - - - - -
25/02:30pm 31.8 ESE 11 17 1012.2 - 0.0 - - - - - - -
25/02:00pm 32.1 ESE 10 16 1012.5 - 0.0 - - - - - - -
25/01:30pm 32.4 ESE 14 22 1012.9 - 0.0 - - - - - - -
25/01:00pm 31.6 ESE 12 20 1013.4 - 0.0 - - - - - - -
25/12:30pm 31.4 ESE 12 20 1013.9 - 0.0 - - - - - - -
25/12:00pm 30.1 ESE 12 18 1014.4 - 0.0 - - - - - - -
25/11:30am 30.0 ESE 14 20 1015.0 - 0.0 - - - - - - -
25/11:00am 29.7 ESE 11 18 1015.3 - 0.0 - - - - - - -
25/10:30am 27.5 ESE 12 17 1015.7 - 0.0 - - - - - - -
25/10:00am 27.2 SE 11 16 1016.0 - 0.0 - - - - - - -
25/09:30am 27.3 SE 11 15 1016.0 - 0.0 - - - - - - -
25/09:00am 25.4 SSE 7 11 1015.5 - 0.0 - - - - - - -
25/08:30am 22.7 SSE 8 12 1015.3 - 0.0 - - - - - - -
25/08:00am 20.9 SSE 8 12 1015.2 - 0.0 - - - - - - -
25/07:30am 20.0 SSE 7 9 1015.1 - 0.0 - - - - - - -
25/07:00am 19.4 SSE 5 8 1014.7 - 0.0 - - - - - - -
25/06:30am 19.5 SSE 6 8 1014.5 - 0.0 - - - - - - -
25/06:00am 19.6 SSE 6 7 1014.1 - 0.0 - - - - - - -
25/05:30am 19.9 SE 6 8 1013.7 - 0.0 - - - - - - -
25/05:00am 19.6 SE 5 6 1013.5 - 0.0 - - - - - - -
25/04:30am 20.0 ESE 5 6 1013.5 - 0.0 - - - - - - -
25/04:00am 20.3 ESE 5 6 1013.5 - 0.0 - - - - - - -
25/03:30am 20.4 ESE 5 7 1013.7 - 0.0 - - - - - - -
25/03:00am 20.8 ESE 5 7 1013.9 - 0.0 - - - - - - -
25/02:30am 21.4 SSE 8 11 1014.1 - 0.0 - - - - - - -

Other Formats:

Comma delimited format used in spreadsheet applications
http://www.bom.gov.au/fwo/IDD60701/IDD60701.94140.axf

JavaScript Object Notation format (JSON) in row-major order
http://www.bom.gov.au/fwo/IDD60701/IDD60701.94140.json